Anthem, Arizona
Current Conditions -  °F | °C
As of 11:53 PM on Friday 19 Dec 2014 (Local Time) from KDVT Reporting Station
Clear Clear  
Wind Chill: 47°   Ceiling: Unl
Heat Index: 47°   Visibility: 10mi
Dew Point: 41°   Wind: 0mph
Humidity: 80%   Direction: NA
Pressure: 30.12"   Gusts: NA
Location:  33.8348°N, 112.071°W
Report Text: KDVT 200653Z 00000KT 10SM CLR 08/05 A3012 RMK AO2 SLP193 T00830050 401610056
Loading
Personal Weather Stations






























Interactive Weather Map New forecast layout! Learn more

10-Day Weather Forecast

Advertisements
Track Severe Weather on mobile